createdAt,value
2018-12-21T00:00:25.923Z,17.77
2018-12-21T00:02:55.582Z,19.77
2018-12-21T00:05:26.075Z,18.73
2018-12-21T00:07:55.930Z,25.60
2018-12-21T00:10:26.031Z,21.43
2018-12-21T00:12:55.857Z,21.47
2018-12-21T00:15:26.611Z,23.93
2018-12-21T00:17:56.367Z,21.80
2018-12-21T00:20:26.728Z,25.27
2018-12-21T00:22:56.405Z,19.27
2018-12-21T00:25:26.723Z,19.37
2018-12-21T00:27:56.501Z,28.20
2018-12-21T00:30:26.122Z,22.37
2018-12-21T00:33:01.224Z,27.47
2018-12-21T00:35:35.946Z,19.83
2018-12-21T00:38:10.797Z,21.80
2018-12-21T00:40:45.658Z,22.33
2018-12-21T00:43:23.629Z,26.03
2018-12-21T00:48:42.284Z,22.07
2018-12-21T00:51:12.927Z,20.93
2018-12-21T00:53:42.545Z,20.53
2018-12-21T00:56:12.172Z,24.23
2018-12-21T00:58:41.941Z,20.33
2018-12-21T01:01:12.027Z,20.87
2018-12-21T01:03:42.923Z,22.07
2018-12-21T01:06:12.633Z,17.00
2018-12-21T01:08:42.482Z,18.77
2018-12-21T01:11:12.806Z,21.43
2018-12-21T01:13:42.481Z,17.57
2018-12-21T01:16:12.187Z,18.10
2018-12-21T01:18:42.951Z,19.50
2018-12-21T01:21:13.402Z,19.00
2018-12-21T01:23:43.033Z,15.73
2018-12-21T01:26:12.606Z,23.17
2018-12-21T01:28:42.191Z,20.00
2018-12-21T01:31:12.110Z,18.07
2018-12-21T01:33:43.047Z,17.30
2018-12-21T01:36:12.782Z,15.83
2018-12-21T01:38:42.414Z,19.10
2018-12-21T01:41:12.173Z,17.77
2018-12-21T01:43:41.778Z,15.90
2018-12-21T01:46:11.378Z,17.13
2018-12-21T01:48:42.690Z,17.10
2018-12-21T01:51:12.611Z,14.77
2018-12-21T01:53:42.243Z,15.40
2018-12-21T01:56:12.936Z,17.77
2018-12-21T01:58:42.560Z,14.33
2018-12-21T02:01:12.353Z,14.40
2018-12-21T02:03:43.363Z,13.53
2018-12-21T02:06:13.124Z,13.53
2018-12-21T02:08:42.693Z,15.57
2018-12-21T02:11:13.236Z,14.10
2018-12-21T02:13:42.846Z,13.43
2018-12-21T02:16:12.486Z,16.10
2018-12-21T02:18:43.608Z,15.93
2018-12-21T02:21:13.881Z,11.70
2018-12-21T02:23:43.429Z,11.20
2018-12-21T02:26:13.017Z,14.20
2018-12-21T02:28:42.578Z,12.27
2018-12-21T02:33:42.831Z,10.57
2018-12-21T02:36:12.459Z,9.10
2018-12-21T02:38:42.697Z,13.47
2018-12-21T02:41:12.347Z,14.67
2018-12-21T02:43:42.321Z,12.77
2018-12-21T02:46:11.898Z,9.87
2018-12-21T02:48:43.615Z,10.93
2018-12-21T02:51:13.650Z,9.27
2018-12-21T02:53:43.316Z,15.23
2018-12-21T02:56:12.963Z,10.97
2018-12-21T02:58:42.648Z,9.33
2018-12-21T03:01:12.362Z,7.70
2018-12-21T03:03:44.530Z,9.80
2018-12-21T03:06:14.164Z,9.37
2018-12-21T03:08:44.586Z,11.03
2018-12-21T03:11:15.394Z,11.37
2018-12-21T03:13:45.068Z,12.00
2018-12-21T03:16:14.648Z,11.03
2018-12-21T03:18:45.204Z,11.53
2018-12-21T03:21:15.443Z,10.27
2018-12-21T03:23:45.059Z,13.60
2018-12-21T03:26:14.780Z,7.87
2018-12-21T03:28:44.410Z,9.17
2018-12-21T03:31:14.183Z,10.03
2018-12-21T03:33:45.238Z,8.70
2018-12-21T03:36:14.892Z,12.73
2018-12-21T03:38:44.583Z,11.57
2018-12-21T03:41:14.337Z,10.63
2018-12-21T03:43:44.356Z,12.87
2018-12-21T03:46:13.944Z,12.00
2018-12-21T03:48:44.818Z,8.70
2018-12-21T03:51:15.186Z,11.30
2018-12-21T03:53:44.967Z,9.53
2018-12-21T03:56:14.550Z,7.40
2018-12-21T03:58:44.490Z,7.80
2018-12-21T04:01:14.199Z,8.20
2018-12-21T04:03:44.882Z,7.43
2018-12-21T04:06:14.534Z,8.37
2018-12-21T04:08:44.883Z,8.23
2018-12-21T04:11:14.953Z,7.60
2018-12-21T04:13:45.207Z,9.57
2018-12-21T04:16:15.643Z,7.50
2018-12-21T04:18:45.986Z,6.80
2018-12-21T04:21:16.238Z,13.23
2018-12-21T04:23:46.329Z,44.80
2018-12-21T04:26:15.934Z,52.83
2018-12-21T04:28:46.316Z,108.57
2018-12-21T04:31:16.760Z,12.73
2018-12-21T04:33:47.174Z,10.07
2018-12-21T04:36:16.765Z,7.37
2018-12-21T04:38:46.624Z,5.87
2018-12-21T04:41:16.933Z,8.43
2018-12-21T04:43:47.571Z,11.50
2018-12-21T04:46:17.187Z,7.47
2018-12-21T04:48:47.233Z,8.23
2018-12-21T04:51:16.841Z,15.67
2018-12-21T04:53:47.325Z,18.73
2018-12-21T04:56:16.977Z,101.43
2018-12-21T04:58:48.379Z,148.53
2018-12-21T05:01:18.786Z,343.47
2018-12-21T05:03:48.599Z,213.70
2018-12-21T05:06:18.407Z,227.33
2018-12-21T05:08:48.162Z,183.97
2018-12-21T05:11:17.769Z,269.33
2018-12-21T05:13:48.297Z,177.73
2018-12-21T05:16:18.110Z,207.50
2018-12-21T05:18:48.341Z,136.13
2018-12-21T05:21:17.970Z,190.30
2018-12-21T05:23:48.113Z,134.10
2018-12-21T05:26:17.854Z,57.03
2018-12-21T05:28:48.410Z,84.47
2018-12-21T05:31:18.103Z,95.30
2018-12-21T05:33:48.416Z,101.67
2018-12-21T05:36:18.236Z,42.03
2018-12-21T05:38:49.082Z,12.10
2018-12-21T05:41:18.707Z,14.23
2018-12-21T05:43:50.236Z,15.20
2018-12-21T05:46:19.838Z,8.50
2018-12-21T05:48:49.830Z,7.03
2018-12-21T05:51:19.402Z,7.37
2018-12-21T05:53:49.506Z,5.40
2018-12-21T05:56:19.412Z,6.00
2018-12-21T05:58:50.909Z,5.97
2018-12-21T06:01:21.171Z,4.57
2018-12-21T06:03:51.339Z,6.10
2018-12-21T06:06:20.917Z,6.67
2018-12-21T06:08:50.722Z,7.47
2018-12-21T06:11:20.317Z,4.50
2018-12-21T06:13:50.488Z,3.83
2018-12-21T06:16:20.599Z,6.50
2018-12-21T06:18:50.157Z,4.93
2018-12-21T06:21:19.731Z,5.23
2018-12-21T06:23:50.069Z,7.43
2018-12-21T06:29:01.076Z,3.97
2018-12-21T06:31:30.665Z,4.03
2018-12-21T06:34:00.302Z,4.17
2018-12-21T06:36:29.950Z,3.60
2018-12-21T06:38:59.551Z,4.77
2018-12-21T06:41:29.165Z,6.20
2018-12-21T06:43:59.109Z,4.60
2018-12-21T06:46:28.862Z,3.80
2018-12-21T06:48:58.493Z,5.23
2018-12-21T06:51:28.214Z,6.10
2018-12-21T06:53:57.993Z,6.70
2018-12-21T07:02:27.846Z,4.33
2018-12-21T07:04:57.600Z,7.70
2018-12-21T07:07:27.211Z,4.43
2018-12-21T07:09:59.293Z,4.70
2018-12-21T07:12:30.961Z,3.90
2018-12-21T07:15:01.960Z,7.70
2018-12-21T07:17:32.838Z,5.27
2018-12-21T07:20:02.568Z,5.93
2018-12-21T07:22:32.216Z,4.60
2018-12-21T07:25:01.948Z,8.07
2018-12-21T07:27:31.651Z,7.47
2018-12-21T07:30:01.281Z,6.63
2018-12-21T07:32:30.888Z,7.07
2018-12-21T07:35:00.474Z,8.13
2018-12-21T07:37:30.115Z,5.43
2018-12-21T07:39:59.936Z,5.20
2018-12-21T07:42:29.584Z,7.63
2018-12-21T07:44:59.194Z,7.40
2018-12-21T07:47:29.097Z,6.23
2018-12-21T07:50:12.112Z,5.17
2018-12-21T07:52:44.255Z,6.97
2018-12-21T07:55:13.912Z,7.13
2018-12-21T07:57:44.706Z,6.13
2018-12-21T08:00:14.359Z,11.47
2018-12-21T08:02:43.984Z,5.43
2018-12-21T08:05:13.590Z,10.13
2018-12-21T08:07:43.231Z,8.53
2018-12-21T08:10:18.557Z,6.27
2018-12-21T08:12:48.417Z,8.17
2018-12-21T08:15:17.971Z,6.17
2018-12-21T08:17:47.748Z,9.57
2018-12-21T08:20:17.455Z,8.00
2018-12-21T08:22:47.287Z,9.80
2018-12-21T08:25:19.065Z,8.00
2018-12-21T08:27:49.347Z,7.43
2018-12-21T08:30:19.012Z,9.40
2018-12-21T08:32:48.916Z,12.03
2018-12-21T08:35:18.584Z,9.23
2018-12-21T08:37:48.702Z,11.00
2018-12-21T08:40:18.334Z,6.93
2018-12-21T08:42:47.936Z,9.30
2018-12-21T08:45:17.550Z,7.97
2018-12-21T08:47:47.127Z,6.97
2018-12-21T08:50:16.732Z,9.07
2018-12-21T08:52:46.342Z,9.83
2018-12-21T08:55:15.923Z,9.13
2018-12-21T08:57:45.561Z,9.57
2018-12-21T09:00:15.255Z,7.43
2018-12-21T09:02:44.803Z,7.27
2018-12-21T09:05:14.423Z,9.10
2018-12-21T09:07:43.976Z,9.37
2018-12-21T09:10:13.746Z,6.93
2018-12-21T09:12:43.916Z,5.87
2018-12-21T09:15:18.796Z,7.93
2018-12-21T09:17:48.374Z,9.53
2018-12-21T09:20:18.156Z,5.90
2018-12-21T09:22:48.157Z,7.23
2018-12-21T09:25:17.717Z,6.10
2018-12-21T09:27:47.252Z,8.67
2018-12-21T09:30:16.913Z,6.20
2018-12-21T09:32:46.488Z,8.93
2018-12-21T09:35:16.076Z,6.43
2018-12-21T09:37:45.630Z,8.73
2018-12-21T09:40:15.338Z,7.03
2018-12-21T09:42:45.040Z,9.33
2018-12-21T09:45:14.620Z,6.33
2018-12-21T09:47:44.896Z,7.37
2018-12-21T09:50:14.590Z,7.13
2018-12-21T09:52:45.293Z,6.73
2018-12-21T09:55:14.983Z,11.00
2018-12-21T09:57:44.758Z,9.17
2018-12-21T10:00:14.484Z,7.73
2018-12-21T10:02:44.062Z,7.70
2018-12-21T10:05:16.637Z,9.47
2018-12-21T10:07:46.630Z,5.87
2018-12-21T10:10:16.194Z,12.57
2018-12-21T10:12:45.888Z,10.20
2018-12-21T10:15:18.102Z,7.90
2018-12-21T10:17:47.969Z,9.43
2018-12-21T10:20:19.990Z,6.13
2018-12-21T10:22:49.865Z,6.20
2018-12-21T10:25:19.426Z,8.83
2018-12-21T10:27:49.092Z,12.47
2018-12-21T10:30:18.782Z,10.83
2018-12-21T10:32:48.327Z,13.77
2018-12-21T10:35:17.925Z,8.93
2018-12-21T10:37:47.860Z,9.63
2018-12-21T10:40:17.569Z,7.37
2018-12-21T10:42:47.143Z,7.63
2018-12-21T10:45:16.790Z,9.20
2018-12-21T10:47:46.470Z,11.47
2018-12-21T10:50:16.102Z,8.57
2018-12-21T10:52:45.664Z,9.20
2018-12-21T10:55:15.220Z,8.87
2018-12-21T10:57:45.084Z,8.30
2018-12-21T11:00:14.889Z,10.13
2018-12-21T11:02:44.503Z,10.63
2018-12-21T11:05:14.922Z,7.07
2018-12-21T11:07:44.644Z,7.57
2018-12-21T11:10:14.355Z,12.50
2018-12-21T11:12:44.980Z,10.27
2018-12-21T11:15:14.759Z,6.30
2018-12-21T11:17:44.346Z,7.70
2018-12-21T11:20:14.134Z,9.73
2018-12-21T11:22:43.878Z,5.83
2018-12-21T11:25:15.018Z,9.10
2018-12-21T11:27:44.916Z,7.33
2018-12-21T11:30:14.586Z,5.27
2018-12-21T11:32:44.153Z,9.47
2018-12-21T11:35:13.806Z,5.33
2018-12-21T11:37:43.916Z,12.10
2018-12-21T11:40:13.558Z,6.13
2018-12-21T11:42:43.942Z,7.00
2018-12-21T11:45:13.557Z,9.33
2018-12-21T11:47:43.117Z,5.57
2018-12-21T11:50:13.282Z,8.03
2018-12-21T11:52:42.990Z,9.30
2018-12-21T11:55:12.576Z,7.33
2018-12-21T11:57:42.880Z,12.47
2018-12-21T12:00:12.598Z,8.43
2018-12-21T12:02:42.186Z,10.27
2018-12-21T12:05:11.820Z,7.53
2018-12-21T12:07:41.628Z,6.10
2018-12-21T12:10:11.450Z,7.00
2018-12-21T12:12:42.274Z,6.30
2018-12-21T12:15:11.934Z,7.67
2018-12-21T12:17:41.594Z,6.67
2018-12-21T12:20:11.390Z,10.90
2018-12-21T12:22:41.294Z,7.30
2018-12-21T12:25:10.940Z,10.50
2018-12-21T12:27:42.078Z,8.03
2018-12-21T12:30:14.152Z,6.90
2018-12-21T12:32:43.736Z,10.93
2018-12-21T12:35:13.341Z,8.90
2018-12-21T12:37:42.985Z,8.03
2018-12-21T12:40:12.771Z,9.20
2018-12-21T12:42:43.079Z,6.43
2018-12-21T12:45:12.637Z,8.43
2018-12-21T12:47:42.274Z,12.67
2018-12-21T12:50:12.261Z,9.00
2018-12-21T12:52:41.929Z,9.27
2018-12-21T12:55:11.534Z,16.07
2018-12-21T12:57:43.274Z,11.70
2018-12-21T13:00:14.065Z,11.43
2018-12-21T13:02:43.667Z,8.83
2018-12-21T13:05:13.279Z,11.80
2018-12-21T13:07:42.981Z,11.07
2018-12-21T13:10:13.087Z,14.03
2018-12-21T13:12:43.485Z,12.47
2018-12-21T13:15:14.021Z,10.70
2018-12-21T13:17:43.633Z,10.17
2018-12-21T13:20:13.235Z,9.13
2018-12-21T13:22:42.851Z,13.63
2018-12-21T13:25:12.412Z,11.53
2018-12-21T13:27:43.036Z,13.27
2018-12-21T13:30:12.718Z,9.07
2018-12-21T13:32:42.339Z,19.83
2018-12-21T13:35:12.002Z,11.07
2018-12-21T13:37:41.666Z,11.37
2018-12-21T13:40:13.177Z,13.67
2018-12-21T13:42:43.014Z,13.43
2018-12-21T13:45:13.011Z,14.17
2018-12-21T13:47:43.073Z,12.33
2018-12-21T13:50:15.668Z,12.77
2018-12-21T13:52:45.355Z,12.77
2018-12-21T13:55:20.204Z,16.67
2018-12-21T13:57:46.735Z,13.87
2018-12-21T14:00:16.442Z,12.43
2018-12-21T14:02:46.081Z,13.80
2018-12-21T14:05:16.057Z,12.73
2018-12-21T14:07:45.786Z,15.07
2018-12-21T14:10:15.607Z,16.63
2018-12-21T14:12:45.362Z,14.53
2018-12-21T14:15:14.966Z,13.60
2018-12-21T14:17:44.806Z,11.73
2018-12-21T14:20:14.415Z,17.17
2018-12-21T14:22:44.093Z,20.07
2018-12-21T14:25:13.828Z,15.40
2018-12-21T14:27:44.807Z,15.30
2018-12-21T14:30:14.414Z,16.73
2018-12-21T14:32:46.162Z,15.10
2018-12-21T14:35:15.899Z,18.10
2018-12-21T14:37:45.528Z,16.37
2018-12-21T14:40:15.168Z,14.67
2018-12-21T14:42:44.858Z,14.13
2018-12-21T14:45:14.716Z,17.53
2018-12-21T14:47:44.442Z,15.87
2018-12-21T14:50:14.266Z,20.87
2018-12-21T14:52:43.890Z,16.93
2018-12-21T14:55:13.591Z,15.13
2018-12-21T14:57:44.775Z,12.23
2018-12-21T15:00:15.277Z,16.10
2018-12-21T15:02:45.042Z,19.30
2018-12-21T15:05:15.013Z,12.53
2018-12-21T15:07:44.651Z,17.30
2018-12-21T15:10:14.461Z,13.57
2018-12-21T15:12:44.783Z,14.77
2018-12-21T15:15:14.630Z,18.30
2018-12-21T15:17:44.265Z,16.20
2018-12-21T15:20:14.608Z,14.97
2018-12-21T15:22:44.232Z,13.00
2018-12-21T15:25:13.817Z,18.90
2018-12-21T15:27:46.559Z,18.20
2018-12-21T15:30:16.738Z,19.73
2018-12-21T15:32:46.405Z,14.57
2018-12-21T15:35:16.434Z,23.27
2018-12-21T15:37:46.030Z,17.17
2018-12-21T15:40:15.922Z,20.60
2018-12-21T15:42:45.536Z,18.37
2018-12-21T15:45:15.364Z,15.70
2018-12-21T15:47:45.029Z,16.13
2018-12-21T15:50:14.661Z,16.00
2018-12-21T15:52:44.535Z,20.57
2018-12-21T15:55:14.316Z,17.77
2018-12-21T15:57:44.174Z,19.57
2018-12-21T16:00:16.772Z,19.77
2018-12-21T16:02:51.281Z,20.50
2018-12-21T16:05:21.202Z,14.33
2018-12-21T16:07:51.469Z,15.80
2018-12-21T16:10:21.756Z,15.63
2018-12-21T16:12:53.396Z,14.87
2018-12-21T16:15:28.707Z,16.43
2018-12-21T16:17:58.479Z,19.43
2018-12-21T16:20:28.207Z,18.93
2018-12-21T16:22:58.784Z,17.93
2018-12-21T16:25:28.390Z,62.90
2018-12-21T16:27:57.975Z,34.30
2018-12-21T16:30:27.634Z,36.47
2018-12-21T16:32:57.258Z,19.77
2018-12-21T16:35:27.042Z,19.20
2018-12-21T16:37:57.224Z,13.23
2018-12-21T16:40:26.957Z,16.30
2018-12-21T16:42:56.572Z,13.30
2018-12-21T16:45:26.214Z,15.53
2018-12-21T16:47:55.946Z,42.47
2018-12-21T16:50:25.756Z,117.60
2018-12-21T16:52:56.479Z,41.40
2018-12-21T16:55:27.377Z,47.03
2018-12-21T16:57:57.144Z,42.90
2018-12-21T17:00:26.764Z,42.67
2018-12-21T17:02:56.417Z,39.50
2018-12-21T17:05:26.098Z,12.50
2018-12-21T17:07:56.344Z,25.77
2018-12-21T17:10:26.354Z,14.30
2018-12-21T17:12:56.199Z,37.77
2018-12-21T17:15:25.870Z,32.10
2018-12-21T17:17:55.564Z,35.83
2018-12-21T17:20:25.438Z,16.13
2018-12-21T17:22:56.233Z,10.13
2018-12-21T17:25:25.875Z,17.33
2018-12-21T17:27:55.638Z,14.43
2018-12-21T17:30:25.837Z,17.33
2018-12-21T17:32:55.582Z,22.97
2018-12-21T17:35:25.489Z,20.23
2018-12-21T17:37:55.801Z,15.23
2018-12-21T17:40:26.111Z,13.33
2018-12-21T17:42:55.841Z,20.77
2018-12-21T17:45:25.686Z,14.73
2018-12-21T17:47:55.843Z,11.10
2018-12-21T17:50:26.091Z,14.67
2018-12-21T17:52:56.476Z,10.33
2018-12-21T17:55:26.661Z,13.83
2018-12-21T17:57:56.352Z,8.00
2018-12-21T18:00:30.795Z,12.83
2018-12-21T18:03:00.867Z,9.07
2018-12-21T18:05:30.782Z,8.67
2018-12-21T18:08:00.553Z,8.07
2018-12-21T18:10:31.230Z,8.57
2018-12-21T18:13:00.834Z,10.53
2018-12-21T18:15:30.731Z,7.67
2018-12-21T18:18:00.427Z,10.33
2018-12-21T18:20:33.442Z,10.73
2018-12-21T18:23:05.708Z,9.63
2018-12-21T18:25:35.786Z,11.53
2018-12-21T18:28:11.118Z,12.63
2018-12-21T18:30:49.027Z,11.10
2018-12-21T18:33:22.395Z,15.00
2018-12-21T18:35:55.027Z,12.43
2018-12-21T18:38:29.289Z,11.97
2018-12-21T18:40:59.646Z,17.30
2018-12-21T18:43:31.205Z,12.93
2018-12-21T18:46:02.465Z,11.47
2018-12-21T18:48:32.083Z,14.87
2018-12-21T18:51:01.673Z,9.93
2018-12-21T18:53:31.296Z,7.67
2018-12-21T18:56:02.077Z,7.93
2018-12-21T18:58:32.122Z,7.57
2018-12-21T19:01:01.954Z,7.90
2018-12-21T19:03:31.879Z,6.50
2018-12-21T19:06:01.586Z,9.20
2018-12-21T19:08:35.332Z,7.57
2018-12-21T19:11:05.165Z,7.03
2018-12-21T19:13:34.860Z,6.30
2018-12-21T19:16:05.220Z,7.53
2018-12-21T19:18:35.382Z,7.10
2018-12-21T19:21:07.028Z,6.77
2018-12-21T19:23:36.765Z,9.27
2018-12-21T19:26:06.997Z,7.73
2018-12-21T19:28:36.697Z,9.93
2018-12-21T19:31:07.286Z,7.60
2018-12-21T19:33:36.995Z,7.50
2018-12-21T19:36:19.072Z,10.70
2018-12-21T19:38:52.414Z,8.90
2018-12-21T19:41:24.341Z,7.90
2018-12-21T19:43:57.612Z,7.90
2018-12-21T19:46:31.253Z,8.27
2018-12-21T19:49:07.665Z,7.23
2018-12-21T19:51:42.978Z,6.73
2018-12-21T19:54:17.945Z,10.33
2018-12-21T19:57:12.746Z,8.60
2018-12-21T19:59:43.164Z,7.33
2018-12-21T20:02:12.966Z,7.20
2018-12-21T20:04:43.125Z,6.30
2018-12-21T20:07:13.339Z,6.63
2018-12-21T20:09:43.843Z,11.10
2018-12-21T20:12:13.655Z,5.53
2018-12-21T20:14:44.232Z,7.13
2018-12-21T20:17:14.278Z,6.50
2018-12-21T20:19:44.319Z,5.60
2018-12-21T20:22:15.682Z,5.67
2018-12-21T20:24:47.678Z,7.27
2018-12-21T20:27:18.865Z,4.77
2018-12-21T20:29:51.003Z,5.10
2018-12-21T20:32:22.726Z,4.30
2018-12-21T20:34:55.191Z,6.60
2018-12-21T20:37:27.597Z,6.47
2018-12-21T20:40:00.331Z,6.00
2018-12-21T20:42:32.280Z,6.10
2018-12-21T20:45:04.669Z,5.33
2018-12-21T20:47:38.190Z,6.10
2018-12-21T20:50:14.814Z,4.73
2018-12-21T20:52:48.400Z,4.57
2018-12-21T20:55:21.336Z,5.13
2018-12-21T20:58:00.212Z,4.80
2018-12-21T21:00:33.293Z,10.97
2018-12-21T21:03:05.273Z,4.80
2018-12-21T21:05:38.495Z,6.33
2018-12-21T21:08:12.184Z,5.97
2018-12-21T21:10:43.333Z,4.03
2018-12-21T21:13:19.329Z,4.83
2018-12-21T21:15:52.908Z,5.90
2018-12-21T21:18:25.053Z,6.63
2018-12-21T21:21:00.198Z,5.70
2018-12-21T21:23:40.583Z,5.13
2018-12-21T21:26:13.228Z,3.00
2018-12-21T21:28:45.955Z,4.80
2018-12-21T21:31:18.089Z,3.93
2018-12-21T21:33:50.187Z,3.77
2018-12-21T21:36:22.319Z,3.13
2018-12-21T21:38:54.310Z,3.60
2018-12-21T21:41:26.197Z,3.93
2018-12-21T21:43:59.592Z,3.20
2018-12-21T21:46:32.828Z,5.00
2018-12-21T21:49:05.748Z,5.30
2018-12-21T21:51:38.993Z,4.93
2018-12-21T21:54:13.179Z,3.60
2018-12-21T21:56:44.809Z,7.90
2018-12-21T21:59:16.489Z,3.33
2018-12-21T22:01:48.884Z,7.63
2018-12-21T22:04:21.811Z,3.50
2018-12-21T22:06:54.934Z,3.63
2018-12-21T22:09:28.271Z,2.13
2018-12-21T22:12:01.268Z,3.90
2018-12-21T22:14:32.984Z,4.23
2018-12-21T22:17:07.536Z,6.50
2018-12-21T22:19:41.781Z,2.80
2018-12-21T22:22:11.669Z,3.10
2018-12-21T22:24:43.250Z,3.87
2018-12-21T22:27:12.831Z,4.03
2018-12-21T22:29:43.540Z,5.00
2018-12-21T22:32:13.205Z,2.70
2018-12-21T22:34:42.809Z,2.73
2018-12-21T22:37:12.505Z,3.87
2018-12-21T22:39:45.431Z,3.40
2018-12-21T22:42:15.064Z,9.67
2018-12-21T22:44:44.797Z,5.03
2018-12-21T22:47:14.484Z,3.30
2018-12-21T22:49:44.186Z,6.03
2018-12-21T22:52:13.766Z,5.53
2018-12-21T22:54:44.277Z,6.73
2018-12-21T22:57:13.815Z,6.73
2018-12-21T22:59:44.990Z,7.57
2018-12-21T23:02:14.780Z,10.63
2018-12-21T23:04:44.426Z,5.83
2018-12-21T23:07:14.259Z,11.90
2018-12-21T23:09:44.836Z,8.00
2018-12-21T23:12:14.418Z,11.20
2018-12-21T23:14:44.124Z,9.43
2018-12-21T23:17:13.715Z,9.90
2018-12-21T23:19:43.374Z,6.73
2018-12-21T23:22:12.939Z,10.07
2018-12-21T23:24:44.050Z,7.17
2018-12-21T23:27:13.648Z,8.63
2018-12-21T23:29:43.287Z,8.77
2018-12-21T23:32:12.906Z,12.10
2018-12-21T23:34:42.639Z,11.33
2018-12-21T23:37:12.203Z,9.13
2018-12-21T23:39:44.060Z,6.60
2018-12-21T23:42:13.697Z,6.33
2018-12-21T23:44:43.715Z,3.50
2018-12-21T23:47:13.449Z,9.60
2018-12-21T23:49:43.733Z,7.20
2018-12-21T23:52:16.777Z,12.57
2018-12-21T23:54:46.606Z,11.17
2018-12-21T23:57:16.270Z,7.10
2018-12-21T23:59:45.958Z,10.60
